»·PEaware :: QXE2184 KSEA-KPDX

QXE2184 :: KSEA-KPDX

FLIGHT INFORMATION

Flight Status: Arrived
Operator:
Horizon Air
More flights by this operator :: More flights under this callsign
Pilot: Joshua V. (18904)
Aircraft: DEHAVILLAND DASH 8 400
(DH8D)
More flights by this aircraft type
Origin: KSEA Seattle-Tacoma Intl
United States
Destination: KPDX Portland Intl
United States
More flights between these airports :: More routes between these airports
Route: SEA7 BUWZO KRATR2
File this flight plan on PilotEdge
Remarks: RMK / SIMBRIEF
Altitude:
(Current/Filed)
17,000ft
Speed:
(Current/Filed)
313kts
Departed: 13-Oct-21 06:13 PM
Arrived: 13-Oct-21 06:43 PM
Distance/Time
Traveled:
112nm/0:30
Distance/Time
To Go:
Arrived

Flight Plot

Page will automatically refresh every two minutes.

Flight plan parsing failed; only flown route is shown


Map Options




Map Legend


Flown Route
Filed Route
Departure Airport
Arrival Airport
Navaid (VOR, NDB)
Fix

Horizontal Profiles

Position Reports

Time Latitude Longitude Heading Altitude Ground
Speed
13-Oct-21 17:47 47.446011 -122.304769 90 440ft 0kts
13-Oct-21 17:48 47.446011 -122.304769 90 440ft 0kts
13-Oct-21 17:49 47.446011 -122.304769 90 440ft 0kts
13-Oct-21 17:50 47.446011 -122.304769 90 440ft 0kts
13-Oct-21 17:51 47.446011 -122.304769 90 440ft 0kts
13-Oct-21 17:52 47.446011 -122.304769 90 440ft 0kts
13-Oct-21 17:53 47.446011 -122.304769 90 440ft 0kts
13-Oct-21 17:54 47.446011 -122.304769 90 440ft 0kts
13-Oct-21 17:55 47.446011 -122.304769 90 440ft 0kts
13-Oct-21 17:56 47.446011 -122.304769 90 440ft 0kts
13-Oct-21 17:57 47.446011 -122.304769 90 440ft 0kts
13-Oct-21 17:58 47.446011 -122.304769 90 440ft 0kts
13-Oct-21 17:59 47.445983 -122.305127 67 440ft 3kts
13-Oct-21 18:00 47.445623 -122.305419 0 440ft 0kts
13-Oct-21 18:01 47.445623 -122.305419 0 440ft 0kts
13-Oct-21 18:02 47.445623 -122.305419 0 440ft 0kts
13-Oct-21 18:03 47.445619 -122.305419 0 440ft 0kts
13-Oct-21 18:04 47.447336 -122.305382 1 440ft 7kts
13-Oct-21 18:05 47.447680 -122.305483 272 440ft 0kts
13-Oct-21 18:06 47.447807 -122.306169 321 440ft 7kts
13-Oct-21 18:07 47.451683 -122.306270 0 440ft 16kts
13-Oct-21 18:08 47.454948 -122.306251 358 440ft 17kts
13-Oct-21 18:09 47.459535 -122.306204 359 440ft 11kts
13-Oct-21 18:10 47.462610 -122.306151 0 440ft 12kts
13-Oct-21 18:11 47.462907 -122.307783 179 440ft 0kts
13-Oct-21 18:12 47.438644 -122.307448 177 1342ft 135kts
13-Oct-21 18:13 47.393486 -122.295629 185 3456ft 184kts
13-Oct-21 18:14 47.340941 -122.303989 174 5701ft 216kts
13-Oct-21 18:15 47.280530 -122.297243 178 7860ft 234kts
13-Oct-21 18:16 47.214938 -122.292850 180 10094ft 248kts
13-Oct-21 18:17 47.146608 -122.287680 181 12103ft 259kts
13-Oct-21 18:18 47.076005 -122.282621 181 13907ft 269kts
13-Oct-21 18:19 47.001945 -122.282782 199 15270ft 276kts
13-Oct-21 18:20 46.931328 -122.310410 186 16807ft 287kts
13-Oct-21 18:21 46.848328 -122.310161 183 16999ft 330kts
13-Oct-21 18:22 46.756164 -122.309712 183 17005ft 355kts
13-Oct-21 18:23 46.658390 -122.309747 183 17006ft 368kts
13-Oct-21 18:24 46.558879 -122.309818 184 17004ft 373kts
13-Oct-21 18:25 46.458677 -122.309748 184 17008ft 369kts
13-Oct-21 18:26 46.359216 -122.309739 184 16433ft 368kts
13-Oct-21 18:27 46.262390 -122.309536 184 14903ft 350kts
13-Oct-21 18:28 46.184377 -122.350529 211 14317ft 302kts
13-Oct-21 18:29 46.112904 -122.390893 206 12738ft 266kts
13-Oct-21 18:30 46.043838 -122.427886 206 11310ft 286kts
13-Oct-21 18:31 45.972887 -122.466115 205 9829ft 274kts
13-Oct-21 18:32 45.909510 -122.515007 225 8626ft 261kts
13-Oct-21 18:33 45.857205 -122.581932 225 7383ft 256kts
13-Oct-21 18:34 45.807191 -122.645048 224 5891ft 226kts
13-Oct-21 18:35 45.765558 -122.698125 224 4771ft 190kts
13-Oct-21 18:36 45.720041 -122.730476 196 3316ft 183kts
13-Oct-21 18:37 45.676383 -122.743698 169 2333ft 148kts
13-Oct-21 18:38 45.644041 -122.716319 146 1544ft 131kts
13-Oct-21 18:39 45.618699 -122.681308 123 888ft 120kts
13-Oct-21 18:40 45.601763 -122.638453 119 344ft 125kts
13-Oct-21 18:41 45.588948 -122.605587 115 37ft 43kts
13-Oct-21 18:42 45.588003 -122.599798 62 37ft 6kts
13-Oct-21 18:43 45.589213 -122.600849 299 37ft 10kts
13-Oct-21 18:44 45.591178 -122.600654 50 37ft 8kts
13-Oct-21 18:45 45.590587 -122.599452 197 37ft 0kts
13-Oct-21 18:46 45.590587 -122.599452 197 37ft 0kts
13-Oct-21 18:47 45.590587 -122.599452 197 37ft 0kts
13-Oct-21 18:48 45.590587 -122.599452 197 37ft 0kts

Navigation Log

Ident Type
Flight plan parsing failed, navigation log unavailable